createdAt,value
2018-09-28T00:00:34.114Z,0.00
2018-09-28T00:01:34.089Z,0.00
2018-09-28T00:02:34.063Z,0.00
2018-09-28T00:03:34.034Z,0.00
2018-09-28T00:04:34.005Z,0.00
2018-09-28T00:05:33.984Z,0.00
2018-09-28T00:06:33.950Z,0.00
2018-09-28T00:07:33.923Z,0.00
2018-09-28T00:08:33.895Z,0.00
2018-09-28T00:09:33.870Z,0.00
2018-09-28T00:10:33.887Z,0.00
2018-09-28T00:11:33.813Z,0.00
2018-09-28T00:12:33.785Z,0.00
2018-09-28T00:13:33.758Z,0.00
2018-09-28T00:14:33.731Z,0.00
2018-09-28T00:15:33.704Z,0.00
2018-09-28T00:16:33.676Z,0.00
2018-09-28T00:17:33.648Z,0.00
2018-09-28T00:18:33.621Z,0.00
2018-09-28T00:19:33.593Z,0.00
2018-09-28T00:20:33.568Z,0.00
2018-09-28T00:21:33.540Z,0.76
2018-09-28T00:22:33.517Z,2.49
2018-09-28T00:23:33.482Z,4.88
2018-09-28T00:24:33.456Z,5.46
2018-09-28T00:25:33.429Z,6.41
2018-09-28T00:26:33.403Z,7.86
2018-09-28T00:27:33.372Z,10.72
2018-09-28T00:28:33.345Z,12.26
2018-09-28T00:29:33.318Z,12.16
2018-09-28T00:30:33.293Z,13.13
2018-09-28T00:31:33.263Z,12.55
2018-09-28T00:32:33.236Z,12.07
2018-09-28T00:33:33.208Z,12.26
2018-09-28T00:34:33.181Z,12.27
2018-09-28T00:35:33.153Z,12.55
2018-09-28T00:36:33.125Z,13.51
2018-09-28T00:37:33.100Z,13.70
2018-09-28T00:38:33.073Z,12.55
2018-09-28T00:39:33.045Z,11.02
2018-09-28T00:40:33.018Z,10.44
2018-09-28T00:41:32.991Z,11.11
2018-09-28T00:42:32.965Z,10.44
2018-09-28T00:43:32.939Z,10.73
2018-09-28T00:44:32.911Z,12.17
2018-09-28T00:45:32.882Z,11.02
2018-09-28T00:46:32.856Z,9.58
2018-09-28T00:47:32.827Z,9.20
2018-09-28T00:48:32.804Z,9.97
2018-09-28T00:49:32.774Z,9.68
2018-09-28T00:50:32.747Z,8.14
2018-09-28T00:51:32.721Z,6.23
2018-09-28T00:52:32.695Z,6.32
2018-09-28T00:53:32.669Z,6.51
2018-09-28T00:54:32.643Z,5.55
2018-09-28T00:55:32.613Z,4.88
2018-09-28T00:56:32.586Z,4.31
2018-09-28T00:57:32.563Z,4.88
2018-09-28T00:58:32.535Z,4.31
2018-09-28T00:59:32.506Z,1.92
2018-09-28T01:00:32.479Z,0.00
2018-09-28T01:01:32.452Z,0.00
2018-09-28T01:02:32.427Z,0.00
2018-09-28T01:03:32.398Z,0.00
2018-09-28T01:04:32.370Z,0.00
2018-09-28T01:05:32.346Z,0.00
2018-09-28T01:06:32.319Z,0.00
2018-09-28T01:07:32.292Z,0.00
2018-09-28T01:08:32.265Z,0.00
2018-09-28T01:09:32.240Z,0.00
2018-09-28T01:10:32.213Z,0.00
2018-09-28T01:11:32.185Z,0.00
2018-09-28T01:12:32.159Z,0.00
2018-09-28T01:13:32.132Z,0.19
2018-09-28T01:14:32.105Z,12.46
2018-09-28T01:15:32.080Z,4.98
2018-09-28T01:16:32.052Z,7.66
2018-09-28T01:17:32.026Z,6.60
2018-09-28T01:18:31.999Z,3.44
2018-09-28T01:19:31.971Z,3.35
2018-09-28T01:20:31.948Z,3.44
2018-09-28T01:21:31.919Z,1.72
2018-09-28T01:22:31.892Z,1.53
2018-09-28T01:23:31.865Z,2.87
2018-09-28T01:24:31.838Z,4.02
2018-09-28T01:25:31.812Z,4.02
2018-09-28T01:26:31.786Z,4.40
2018-09-28T01:27:31.757Z,5.65
2018-09-28T01:28:31.735Z,5.55
2018-09-28T01:29:31.706Z,4.88
2018-09-28T01:30:31.676Z,5.65
2018-09-28T01:31:31.650Z,4.21
2018-09-28T01:32:31.623Z,6.03
2018-09-28T01:33:31.594Z,7.18
2018-09-28T01:34:31.568Z,7.85
2018-09-28T01:35:31.542Z,6.32
2018-09-28T01:36:31.515Z,6.79
2018-09-28T01:37:31.488Z,7.08
2018-09-28T01:38:31.460Z,6.03
2018-09-28T01:39:31.435Z,4.11
2018-09-28T01:40:31.404Z,4.88
2018-09-28T01:41:31.378Z,2.48
2018-09-28T01:42:31.352Z,2.77
2018-09-28T01:43:31.322Z,2.58
2018-09-28T01:44:31.296Z,1.72
2018-09-28T01:45:31.269Z,0.38
2018-09-28T01:46:31.243Z,0.00
2018-09-28T01:47:31.214Z,0.00
2018-09-28T01:48:31.187Z,0.00
2018-09-28T01:49:31.162Z,0.00
2018-09-28T01:50:31.133Z,0.00
2018-09-28T01:51:31.106Z,0.00
2018-09-28T01:52:31.079Z,0.00
2018-09-28T01:53:31.053Z,0.00
2018-09-28T01:54:31.025Z,0.00
2018-09-28T01:55:30.997Z,0.00
2018-09-28T01:56:30.971Z,0.00
2018-09-28T01:57:30.943Z,0.00
2018-09-28T01:58:30.916Z,0.00
2018-09-28T01:59:30.889Z,0.00
2018-09-28T02:00:30.862Z,0.00
2018-09-28T02:01:30.835Z,0.00
2018-09-28T02:02:30.806Z,0.00
2018-09-28T02:03:30.779Z,0.00
2018-09-28T02:04:30.751Z,0.00
2018-09-28T02:05:30.724Z,0.00
2018-09-28T02:06:30.698Z,0.00
2018-09-28T02:07:30.669Z,0.00
2018-09-28T02:08:30.646Z,0.00
2018-09-28T02:09:30.613Z,0.00
2018-09-28T02:10:30.589Z,0.00
2018-09-28T02:11:30.560Z,0.00
2018-09-28T02:12:30.589Z,0.00
2018-09-28T02:13:30.506Z,0.00
2018-09-28T02:14:30.478Z,0.00
2018-09-28T02:15:30.451Z,0.00
2018-09-28T02:16:30.423Z,0.00
2018-09-28T02:17:30.413Z,0.00
2018-09-28T02:18:30.369Z,0.00
2018-09-28T02:19:30.343Z,0.00
2018-09-28T02:20:30.314Z,0.00
2018-09-28T02:21:30.287Z,0.00
2018-09-28T02:22:30.261Z,0.00
2018-09-28T02:23:30.232Z,0.00
2018-09-28T02:24:30.205Z,0.00
2018-09-28T02:25:30.177Z,0.00
2018-09-28T02:26:30.151Z,0.00
2018-09-28T02:27:30.122Z,0.00
2018-09-28T02:28:30.096Z,0.00
2018-09-28T02:29:30.069Z,0.00
2018-09-28T02:30:30.041Z,0.00
2018-09-28T02:31:30.013Z,1.15
2018-09-28T02:32:29.987Z,2.77
2018-09-28T02:33:29.958Z,2.20
2018-09-28T02:34:29.931Z,3.25
2018-09-28T02:35:29.903Z,7.07
2018-09-28T02:36:29.874Z,7.07
2018-09-28T02:37:29.848Z,9.94
2018-09-28T02:38:29.818Z,14.44
2018-09-28T02:39:29.791Z,17.88
2018-09-28T02:40:29.763Z,18.07
2018-09-28T02:41:29.735Z,19.42
2018-09-28T02:42:29.710Z,18.46
2018-09-28T02:43:29.691Z,15.97
2018-09-28T02:44:29.652Z,15.78
2018-09-28T02:45:29.625Z,14.06
2018-09-28T02:46:29.597Z,12.05
2018-09-28T02:47:29.570Z,10.89
2018-09-28T02:48:29.541Z,9.75
2018-09-28T02:49:29.513Z,9.46
2018-09-28T02:50:29.483Z,10.13
2018-09-28T02:51:29.456Z,9.27
2018-09-28T02:52:29.428Z,8.60
2018-09-28T02:53:29.401Z,9.84
2018-09-28T02:54:29.372Z,12.90
2018-09-28T02:55:29.345Z,11.95
2018-09-28T02:56:30.231Z,16.73
2018-09-28T02:57:29.290Z,17.97
2018-09-28T02:58:30.232Z,18.54
2018-09-28T02:59:29.234Z,20.26
2018-09-28T03:00:29.205Z,22.66
2018-09-28T03:01:29.183Z,20.07
2018-09-28T03:02:29.151Z,19.31
2018-09-28T03:03:29.123Z,18.54
2018-09-28T03:04:29.093Z,17.97
2018-09-28T03:05:29.064Z,20.55
2018-09-28T03:06:29.080Z,17.97
2018-09-28T03:07:29.008Z,17.40
2018-09-28T03:08:28.980Z,17.49
2018-09-28T03:09:28.953Z,19.50
2018-09-28T03:10:28.924Z,20.26
2018-09-28T03:11:28.896Z,24.76
2018-09-28T03:12:28.874Z,22.08
2018-09-28T03:13:28.840Z,27.05
2018-09-28T03:14:28.812Z,31.93
2018-09-28T03:15:28.782Z,31.26
2018-09-28T03:16:29.741Z,32.41
2018-09-28T03:17:28.727Z,30.77
2018-09-28T03:18:28.699Z,29.33
2018-09-28T03:19:28.670Z,31.15
2018-09-28T03:20:28.644Z,28.47
2018-09-28T03:21:28.615Z,29.05
2018-09-28T03:22:28.586Z,31.53
2018-09-28T03:23:28.558Z,30.38
2018-09-28T03:24:28.530Z,29.33
2018-09-28T03:25:28.505Z,28.19
2018-09-28T03:26:28.475Z,26.95
2018-09-28T03:27:28.445Z,24.94
2018-09-28T03:28:28.417Z,25.23
2018-09-28T03:29:28.390Z,23.22
2018-09-28T03:30:28.361Z,21.78
2018-09-28T03:31:28.342Z,21.88
2018-09-28T03:32:28.303Z,23.41
2018-09-28T03:33:28.275Z,22.07
2018-09-28T03:34:28.246Z,21.88
2018-09-28T03:35:28.221Z,19.59
2018-09-28T03:36:28.188Z,19.01
2018-09-28T03:37:28.161Z,19.68
2018-09-28T03:38:28.134Z,21.01
2018-09-28T03:39:28.104Z,17.95
2018-09-28T03:40:28.084Z,14.70
2018-09-28T03:41:28.048Z,19.57
2018-09-28T03:42:28.019Z,18.52
2018-09-28T03:43:27.989Z,18.43
2018-09-28T03:44:27.960Z,17.47
2018-09-28T03:45:27.931Z,27.22
2018-09-28T03:46:27.903Z,27.98
2018-09-28T03:47:27.874Z,27.98
2018-09-28T03:48:27.845Z,32.57
2018-09-28T03:49:27.816Z,28.55
2018-09-28T03:50:27.789Z,32.76
2018-09-28T03:51:27.768Z,33.62
2018-09-28T03:52:27.730Z,38.10
2018-09-28T03:53:27.701Z,43.26
2018-09-28T03:54:27.672Z,42.97
2018-09-28T03:55:27.642Z,41.16
2018-09-28T03:56:27.616Z,41.14
2018-09-28T03:57:27.588Z,39.71
2018-09-28T03:58:27.556Z,39.14
2018-09-28T03:59:27.528Z,38.76
2018-09-28T04:00:27.498Z,37.13
2018-09-28T04:01:27.469Z,36.56
2018-09-28T04:02:27.440Z,37.99
2018-09-28T04:03:27.411Z,36.18
2018-09-28T04:04:27.383Z,35.03
2018-09-28T04:05:27.354Z,34.17
2018-09-28T04:06:27.328Z,33.22
2018-09-28T04:07:27.295Z,33.12
2018-09-28T04:08:27.262Z,30.83
2018-09-28T04:09:27.240Z,33.31
2018-09-28T04:10:27.207Z,33.70
2018-09-28T04:11:27.178Z,32.17
2018-09-28T04:12:27.149Z,32.17
2018-09-28T04:13:27.120Z,33.79
2018-09-28T04:14:27.091Z,32.93
2018-09-28T04:15:27.063Z,31.79
2018-09-28T04:16:27.034Z,29.97
2018-09-28T04:17:27.004Z,30.16
2018-09-28T04:18:26.976Z,30.26
2018-09-28T04:19:26.945Z,29.69
2018-09-28T04:20:26.916Z,32.36
2018-09-28T04:21:26.888Z,33.31
2018-09-28T04:22:26.858Z,33.03
2018-09-28T04:23:26.827Z,31.79
2018-09-28T04:24:26.799Z,34.84
2018-09-28T04:25:26.770Z,36.94
2018-09-28T04:26:26.742Z,38.09
2018-09-28T04:27:26.712Z,37.13
2018-09-28T04:28:26.683Z,37.99
2018-09-28T04:29:26.656Z,37.71
2018-09-28T04:30:26.625Z,36.27
2018-09-28T04:31:26.594Z,36.08
2018-09-28T04:32:26.566Z,36.37
2018-09-28T04:33:26.538Z,36.66
2018-09-28T04:34:26.509Z,35.70
2018-09-28T04:35:26.478Z,38.66
2018-09-28T04:36:26.448Z,37.68
2018-09-28T04:37:26.421Z,39.61
2018-09-28T04:38:26.392Z,39.61
2018-09-28T04:39:26.370Z,39.42
2018-09-28T04:40:26.331Z,40.93
2018-09-28T04:41:26.306Z,38.47
2018-09-28T04:42:26.274Z,43.33
2018-09-28T04:43:26.246Z,42.86
2018-09-28T04:44:26.215Z,42.77
2018-09-28T04:45:26.230Z,42.19
2018-09-28T04:46:26.160Z,40.66
2018-09-28T04:47:26.127Z,41.62
2018-09-28T04:48:26.098Z,45.15
2018-09-28T04:49:26.069Z,42.48
2018-09-28T04:50:26.041Z,47.06
2018-09-28T04:51:26.010Z,47.25
2018-09-28T04:52:25.982Z,49.54
2018-09-28T04:53:26.751Z,49.54
2018-09-28T04:54:25.923Z,54.70
2018-09-28T04:55:25.894Z,52.12
2018-09-28T04:56:25.865Z,55.82
2018-09-28T04:57:25.835Z,55.75
2018-09-28T04:58:25.806Z,57.28
2018-09-28T04:59:25.777Z,60.68
2018-09-28T05:00:33.166Z,60.90
2018-09-28T05:02:18.579Z,61.10
2018-09-28T05:03:18.520Z,59.25
2018-09-28T05:05:11.354Z,60.78
2018-09-28T05:06:11.297Z,60.68
2018-09-28T05:08:04.102Z,61.54
2018-09-28T05:09:04.068Z,62.88
2018-09-28T05:10:04.041Z,66.53
2018-09-28T05:11:04.009Z,68.51
2018-09-28T05:12:03.981Z,70.98
2018-09-28T05:13:04.019Z,71.18
2018-09-28T05:14:03.921Z,69.87
2018-09-28T05:15:03.891Z,73.88
2018-09-28T05:16:03.864Z,71.94
2018-09-28T05:17:03.834Z,72.42
2018-09-28T05:18:03.805Z,72.03
2018-09-28T05:19:03.774Z,68.70
2018-09-28T05:20:03.749Z,76.04
2018-09-28T05:21:03.716Z,76.14
2018-09-28T05:22:03.690Z,76.23
2018-09-28T05:23:03.657Z,74.04
2018-09-28T05:24:03.629Z,73.56
2018-09-28T05:25:03.600Z,75.09
2018-09-28T05:26:03.570Z,75.47
2018-09-28T05:27:03.548Z,74.42
2018-09-28T05:28:03.512Z,77.09
2018-09-28T05:29:03.483Z,77.67
2018-09-28T05:30:03.453Z,76.14
2018-09-28T05:31:03.448Z,77.19
2018-09-28T05:32:03.422Z,76.23
2018-09-28T05:33:03.412Z,77.28
2018-09-28T05:34:03.340Z,78.72
2018-09-28T05:35:03.309Z,77.09
2018-09-28T05:36:03.275Z,77.57
2018-09-28T05:37:03.249Z,80.62
2018-09-28T05:38:03.218Z,80.15
2018-09-28T05:39:03.192Z,80.43
2018-09-28T05:40:03.160Z,79.57
2018-09-28T05:41:03.182Z,77.86
2018-09-28T05:42:03.107Z,80.15
2018-09-28T05:43:03.073Z,81.67
2018-09-28T05:44:03.705Z,80.72
2018-09-28T05:45:03.014Z,79.57
2018-09-28T05:46:02.989Z,79.48
2018-09-28T05:47:02.955Z,80.15
2018-09-28T05:48:02.925Z,79.38
2018-09-28T05:49:02.896Z,79.00
2018-09-28T05:50:02.868Z,78.72
2018-09-28T05:51:02.835Z,77.67
2018-09-28T05:52:02.810Z,78.58
2018-09-28T05:53:02.773Z,76.86
2018-09-28T05:54:02.748Z,76.57
2018-09-28T05:55:02.717Z,76.48
2018-09-28T05:56:02.688Z,74.96
2018-09-28T05:57:02.659Z,75.15
2018-09-28T05:58:02.629Z,74.10
2018-09-28T05:59:02.602Z,73.81
2018-09-28T06:00:02.578Z,72.67
2018-09-28T06:01:02.542Z,72.00
2018-09-28T06:02:02.540Z,71.72
2018-09-28T06:03:02.483Z,71.72
2018-09-28T06:04:02.503Z,69.81
2018-09-28T06:05:02.426Z,69.52
2018-09-28T06:06:02.400Z,69.71
2018-09-28T06:07:02.365Z,68.95
2018-09-28T06:08:02.334Z,69.52
2018-09-28T06:09:02.304Z,70.00
2018-09-28T06:10:02.281Z,71.52
2018-09-28T06:11:02.248Z,71.23
2018-09-28T06:12:02.214Z,72.09
2018-09-28T06:13:02.188Z,72.57
2018-09-28T06:14:02.158Z,72.09
2018-09-28T06:15:02.128Z,72.51
2018-09-28T06:16:02.100Z,75.47
2018-09-28T06:17:02.072Z,71.75
2018-09-28T06:18:02.090Z,75.85
2018-09-28T06:19:02.037Z,79.00
2018-09-28T06:20:01.995Z,76.14
2018-09-28T06:21:01.949Z,79.28
2018-09-28T06:22:01.920Z,79.77
2018-09-28T06:23:01.891Z,84.16
2018-09-28T06:24:01.872Z,82.15
2018-09-28T06:25:01.836Z,81.67
2018-09-28T06:26:01.808Z,80.91
2018-09-28T06:27:01.772Z,84.06
2018-09-28T06:28:01.767Z,83.77
2018-09-28T06:29:01.715Z,83.87
2018-09-28T06:30:01.726Z,84.16
2018-09-28T06:31:01.657Z,84.25
2018-09-28T06:32:01.626Z,85.01
2018-09-28T06:33:01.600Z,84.92
2018-09-28T06:34:01.567Z,85.97
2018-09-28T06:35:01.566Z,85.97
2018-09-28T06:36:01.580Z,85.01
2018-09-28T06:37:01.481Z,85.97
2018-09-28T06:38:01.453Z,87.40
2018-09-28T06:39:01.429Z,87.02
2018-09-28T06:40:01.396Z,90.07
2018-09-28T06:41:01.364Z,88.35
2018-09-28T06:42:01.449Z,87.87
2018-09-28T06:43:01.305Z,86.35
2018-09-28T06:44:01.277Z,90.83
2018-09-28T06:45:01.249Z,89.59
2018-09-28T06:46:01.227Z,89.50
2018-09-28T06:47:01.184Z,90.36
2018-09-28T06:48:01.212Z,89.40
2018-09-28T06:49:01.130Z,91.50
2018-09-28T06:50:01.101Z,88.83
2018-09-28T06:51:01.077Z,89.21
2018-09-28T06:52:01.714Z,91.31
2018-09-28T06:53:01.013Z,90.64
2018-09-28T06:54:00.995Z,91.02
2018-09-28T06:55:00.963Z,91.02
2018-09-28T06:56:00.931Z,91.12
2018-09-28T06:57:01.714Z,91.60
2018-09-28T06:58:00.878Z,89.59
2018-09-28T06:59:00.841Z,90.26
2018-09-28T07:00:00.906Z,90.83
2018-09-28T07:01:00.780Z,91.31
2018-09-28T07:02:00.753Z,91.02
2018-09-28T07:03:00.726Z,91.83
2018-09-28T07:04:00.751Z,90.93
2018-09-28T07:05:00.666Z,91.69
2018-09-28T07:06:00.704Z,92.17
2018-09-28T07:07:00.609Z,92.88
2018-09-28T07:08:00.580Z,92.12
2018-09-28T07:09:00.550Z,93.12
2018-09-28T07:10:00.522Z,93.65
2018-09-28T07:11:00.494Z,91.93
2018-09-28T07:12:00.487Z,92.97
2018-09-28T07:13:00.436Z,94.41
2018-09-28T07:14:00.405Z,94.79
2018-09-28T07:15:00.378Z,93.93
2018-09-28T07:16:00.350Z,96.13
2018-09-28T07:17:00.321Z,96.70
2018-09-28T07:18:00.424Z,96.03
2018-09-28T07:19:00.264Z,96.13
2018-09-28T07:20:00.235Z,96.13
2018-09-28T07:21:00.219Z,96.42
2018-09-28T07:22:00.179Z,98.52
2018-09-28T07:23:00.720Z,97.56
2018-09-28T07:24:00.180Z,98.32
2018-09-28T07:25:00.193Z,96.32
2018-09-28T07:26:00.061Z,96.03
2018-09-28T07:27:00.034Z,97.37
2018-09-28T07:28:00.003Z,96.80
2018-09-28T07:28:59.980Z,97.37
2018-09-28T07:30:00.046Z,96.98
2018-09-28T07:30:59.937Z,97.66
2018-09-28T07:31:59.892Z,97.27
2018-09-28T07:32:59.865Z,97.18
2018-09-28T07:33:59.840Z,98.71
2018-09-28T07:34:59.806Z,98.18
2018-09-28T07:35:59.825Z,98.66
2018-09-28T07:37:00.799Z,99.52
2018-09-28T07:37:59.720Z,99.99
2018-09-28T07:39:00.218Z,99.99
2018-09-28T07:40:00.222Z,99.99
2018-09-28T07:41:00.223Z,99.99
2018-09-28T07:41:59.672Z,99.99
2018-09-28T07:42:59.578Z,99.99
2018-09-28T07:43:59.555Z,99.99
2018-09-28T07:44:59.521Z,99.99
2018-09-28T07:45:59.493Z,99.99
2018-09-28T07:46:59.468Z,99.99
2018-09-28T07:48:00.264Z,99.99
2018-09-28T07:48:59.426Z,99.99
2018-09-28T07:49:59.377Z,99.99
2018-09-28T07:50:59.357Z,99.99
2018-09-28T07:51:59.321Z,99.99
2018-09-28T07:52:59.295Z,99.99
2018-09-28T07:53:59.264Z,99.99
2018-09-28T07:54:59.242Z,99.99
2018-09-28T07:55:59.214Z,99.99
2018-09-28T07:56:59.183Z,99.99
2018-09-28T07:57:59.156Z,99.99
2018-09-28T07:58:59.126Z,99.99
2018-09-28T07:59:59.118Z,99.99
2018-09-28T08:00:59.068Z,99.99
2018-09-28T08:01:59.039Z,99.99
2018-09-28T08:02:59.015Z,99.99
2018-09-28T08:03:59.053Z,99.99
2018-09-28T08:05:00.727Z,99.99
2018-09-28T08:05:58.933Z,99.99
2018-09-28T08:06:58.902Z,99.99
2018-09-28T08:07:58.874Z,99.99
2018-09-28T08:08:58.849Z,99.99
2018-09-28T08:09:58.816Z,99.99
2018-09-28T08:10:58.788Z,99.99
2018-09-28T08:11:58.765Z,99.99
2018-09-28T08:12:58.735Z,99.99
2018-09-28T08:13:58.707Z,99.99
2018-09-28T08:14:58.679Z,99.99
2018-09-28T08:15:58.651Z,99.99
2018-09-28T08:16:58.623Z,99.99
2018-09-28T08:17:58.630Z,99.99
2018-09-28T08:18:58.566Z,99.99
2018-09-28T08:19:58.538Z,99.99
2018-09-28T08:20:58.510Z,99.99
2018-09-28T08:22:00.229Z,99.99
2018-09-28T08:22:59.231Z,99.99
2018-09-28T08:23:58.431Z,99.99
2018-09-28T08:24:58.399Z,99.99
2018-09-28T08:25:58.368Z,99.99
2018-09-28T08:26:58.347Z,99.99
2018-09-28T08:27:58.332Z,99.99
2018-09-28T08:28:58.285Z,99.99
2018-09-28T08:29:58.264Z,99.99
2018-09-28T08:30:58.733Z,99.99
2018-09-28T08:31:58.197Z,99.99
2018-09-28T08:32:58.174Z,99.99
2018-09-28T08:33:58.158Z,99.99
2018-09-28T08:34:58.119Z,99.99
2018-09-28T08:35:58.093Z,99.99
2018-09-28T08:36:58.081Z,99.99
2018-09-28T08:37:58.037Z,99.99
2018-09-28T08:38:58.009Z,99.99
2018-09-28T08:39:57.983Z,99.99
2018-09-28T08:40:57.955Z,99.99
2018-09-28T08:41:57.985Z,99.99
2018-09-28T08:42:57.907Z,99.99
2018-09-28T08:43:57.907Z,99.99
2018-09-28T08:44:57.840Z,99.99
2018-09-28T08:45:57.820Z,99.99
2018-09-28T08:46:57.788Z,99.99
2018-09-28T08:47:57.762Z,99.99
2018-09-28T08:48:57.736Z,99.99
2018-09-28T08:49:57.713Z,99.99
2018-09-28T08:50:57.681Z,98.38
2018-09-28T08:51:57.654Z,97.90
2018-09-28T08:52:57.624Z,96.94
2018-09-28T08:53:57.603Z,98.38
2018-09-28T08:54:57.576Z,99.99
2018-09-28T08:55:57.545Z,99.99
2018-09-28T08:56:57.517Z,99.99
2018-09-28T08:57:57.582Z,99.99
2018-09-28T08:58:57.463Z,97.08
2018-09-28T08:59:57.438Z,95.61
2018-09-28T09:00:57.434Z,94.93
2018-09-28T09:01:57.399Z,94.74
2018-09-28T09:02:57.357Z,95.12
2018-09-28T09:03:57.329Z,94.74
2018-09-28T09:04:57.302Z,92.83
2018-09-28T09:05:57.276Z,93.50
2018-09-28T09:06:57.247Z,94.74
2018-09-28T09:07:57.217Z,95.12
2018-09-28T09:08:57.199Z,96.08
2018-09-28T09:09:57.166Z,96.56
2018-09-28T09:10:57.138Z,93.69
2018-09-28T09:11:57.113Z,91.68
2018-09-28T09:12:57.088Z,92.30
2018-09-28T09:13:57.059Z,90.53
2018-09-28T09:14:57.032Z,92.93
2018-09-28T09:15:57.006Z,96.13
2018-09-28T09:16:56.978Z,98.24
2018-09-28T09:17:57.022Z,99.24
2018-09-28T09:18:56.919Z,99.99
2018-09-28T09:19:56.906Z,99.48
2018-09-28T09:20:56.872Z,97.90
2018-09-28T09:21:56.845Z,99.62
2018-09-28T09:22:56.816Z,90.53
2018-09-28T09:23:56.806Z,88.15
2018-09-28T09:24:56.764Z,88.24
2018-09-28T09:25:56.736Z,83.69
2018-09-28T09:26:56.708Z,82.83
2018-09-28T09:27:56.685Z,81.59
2018-09-28T09:28:56.656Z,82.17
2018-09-28T09:29:56.637Z,80.98
2018-09-28T09:30:56.601Z,81.65
2018-09-28T09:31:56.575Z,80.40
2018-09-28T09:32:56.550Z,79.73
2018-09-28T09:33:56.522Z,82.51
2018-09-28T09:34:56.495Z,82.12
2018-09-28T09:35:56.471Z,82.70
2018-09-28T09:36:56.435Z,81.55
2018-09-28T09:37:56.426Z,82.98
2018-09-28T09:38:56.389Z,84.52
2018-09-28T09:39:56.360Z,83.46
2018-09-28T09:40:56.333Z,82.51
2018-09-28T09:41:56.310Z,78.81
2018-09-28T09:42:56.279Z,79.44
2018-09-28T09:43:56.252Z,81.26
2018-09-28T09:44:56.227Z,80.25
2018-09-28T09:45:56.200Z,78.63
2018-09-28T09:46:56.174Z,76.75
2018-09-28T09:47:56.188Z,77.19
2018-09-28T09:48:56.120Z,79.39
2018-09-28T09:49:56.093Z,81.88
2018-09-28T09:50:56.065Z,77.48
2018-09-28T09:51:56.039Z,78.72
2018-09-28T09:52:56.012Z,78.14
2018-09-28T09:53:55.989Z,78.09
2018-09-28T09:54:55.962Z,77.23
2018-09-28T09:55:55.932Z,77.90
2018-09-28T09:56:55.905Z,78.76
2018-09-28T09:57:56.017Z,79.77
2018-09-28T09:58:55.857Z,82.74
2018-09-28T09:59:56.747Z,79.77
2018-09-28T10:00:55.801Z,78.24
2018-09-28T10:01:55.775Z,74.51
2018-09-28T10:02:55.747Z,73.02
2018-09-28T10:03:55.720Z,74.41
2018-09-28T10:04:55.694Z,75.85
2018-09-28T10:05:55.668Z,75.76
2018-09-28T10:06:55.643Z,80.25
2018-09-28T10:07:55.616Z,78.05
2018-09-28T10:08:55.589Z,78.53
2018-09-28T10:09:55.562Z,78.91
2018-09-28T10:10:55.534Z,79.58
2018-09-28T10:11:55.508Z,74.13
2018-09-28T10:12:55.481Z,74.90
2018-09-28T10:13:55.457Z,73.40
2018-09-28T10:14:55.429Z,71.11
2018-09-28T10:15:55.402Z,66.80
2018-09-28T10:16:55.376Z,65.84
2018-09-28T10:17:55.415Z,66.32
2018-09-28T10:18:55.325Z,66.25
2018-09-28T10:19:55.295Z,64.05
2018-09-28T10:20:55.271Z,64.82
2018-09-28T10:21:55.245Z,64.05
2018-09-28T10:22:55.220Z,65.94
2018-09-28T10:23:55.194Z,65.36
2018-09-28T10:24:55.168Z,66.51
2018-09-28T10:25:55.144Z,67.76
2018-09-28T10:26:55.153Z,67.69
2018-09-28T10:27:55.187Z,69.09
2018-09-28T10:28:55.063Z,70.15
2018-09-28T10:29:55.034Z,71.11
2018-09-28T10:30:55.015Z,67.56
2018-09-28T10:31:54.989Z,68.90
2018-09-28T10:32:54.962Z,69.67
2018-09-28T10:33:54.940Z,68.90
2018-09-28T10:34:54.911Z,67.56
2018-09-28T10:35:54.883Z,68.71
2018-09-28T10:36:54.860Z,67.85
2018-09-28T10:37:54.833Z,67.76
2018-09-28T10:38:54.808Z,69.19
2018-09-28T10:39:54.782Z,68.55
2018-09-28T10:40:54.887Z,69.86
2018-09-28T10:41:54.730Z,71.30
2018-09-28T10:42:54.705Z,70.43
2018-09-28T10:43:54.676Z,66.70
2018-09-28T10:44:54.652Z,63.93
2018-09-28T10:45:54.628Z,62.20
2018-09-28T10:46:54.603Z,61.91
2018-09-28T10:47:54.581Z,61.34
2018-09-28T10:48:54.597Z,61.44
2018-09-28T10:49:54.523Z,61.02
2018-09-28T10:50:54.530Z,61.22
2018-09-28T10:51:54.565Z,63.89
2018-09-28T10:52:54.545Z,64.75
2018-09-28T10:53:54.420Z,64.75
2018-09-28T10:54:54.395Z,64.66
2018-09-28T10:55:54.371Z,65.90
2018-09-28T10:56:54.342Z,65.45
2018-09-28T10:57:54.317Z,64.59
2018-09-28T10:58:54.371Z,62.30
2018-09-28T10:59:54.268Z,60.96
2018-09-28T11:00:54.239Z,60.67
2018-09-28T11:01:54.212Z,59.52
2018-09-28T11:02:54.233Z,57.99
2018-09-28T11:03:54.161Z,57.99
2018-09-28T11:04:54.132Z,59.72
2018-09-28T11:05:54.109Z,62.30
2018-09-28T11:06:54.091Z,63.35
2018-09-28T11:07:54.112Z,63.26
2018-09-28T11:08:54.075Z,65.04
2018-09-28T11:09:54.003Z,60.93
2018-09-28T11:10:53.978Z,58.56
2018-09-28T11:11:53.950Z,56.75
2018-09-28T11:12:53.923Z,56.75
2018-09-28T11:13:53.901Z,56.94
2018-09-28T11:14:53.871Z,57.13
2018-09-28T11:15:53.841Z,57.04
2018-09-28T11:16:53.817Z,55.22
2018-09-28T11:17:53.790Z,55.98
2018-09-28T11:18:54.293Z,57.90
2018-09-28T11:19:53.739Z,58.76
2018-09-28T11:20:53.738Z,58.95
2018-09-28T11:21:53.687Z,59.43
2018-09-28T11:22:53.664Z,60.38
2018-09-28T11:23:53.638Z,55.51
2018-09-28T11:24:53.607Z,54.23
2018-09-28T11:25:53.582Z,54.64
2018-09-28T11:26:53.557Z,54.33
2018-09-28T11:27:53.529Z,54.80
2018-09-28T11:28:53.502Z,54.80
2018-09-28T11:29:53.478Z,54.90
2018-09-28T11:30:53.446Z,55.47
2018-09-28T11:31:53.427Z,56.82
2018-09-28T11:32:54.268Z,58.25
2018-09-28T11:33:54.266Z,58.18
2018-09-28T11:34:53.343Z,58.18
2018-09-28T11:35:53.317Z,58.12
2018-09-28T11:36:53.291Z,55.41
2018-09-28T11:37:53.342Z,55.02
2018-09-28T11:38:53.236Z,55.60
2018-09-28T11:39:53.213Z,56.46
2018-09-28T11:40:53.182Z,56.30
2018-09-28T11:41:53.157Z,56.01
2018-09-28T11:42:53.131Z,56.08
2018-09-28T11:43:53.105Z,57.32
2018-09-28T11:44:53.079Z,59.05
2018-09-28T11:45:53.118Z,59.72
2018-09-28T11:46:53.025Z,60.67
2018-09-28T11:47:52.998Z,59.75
2018-09-28T11:48:52.972Z,59.75
2018-09-28T11:49:52.946Z,59.65
2018-09-28T11:50:52.919Z,57.73
2018-09-28T11:51:52.895Z,56.10
2018-09-28T11:52:52.866Z,54.26
2018-09-28T11:53:52.840Z,53.78
2018-09-28T11:54:52.818Z,54.07
2018-09-28T11:55:52.788Z,54.10
2018-09-28T11:56:52.763Z,54.38
2018-09-28T11:57:52.737Z,54.38
2018-09-28T11:58:52.708Z,54.28
2018-09-28T11:59:52.722Z,54.55
2018-09-28T12:00:52.659Z,54.93
2018-09-28T12:01:52.632Z,54.96
2018-09-28T12:02:52.612Z,54.67
2018-09-28T12:03:52.631Z,55.79
2018-09-28T12:04:52.555Z,56.46
2018-09-28T12:05:52.527Z,56.87
2018-09-28T12:06:52.595Z,57.06
2018-09-28T12:07:52.476Z,56.77
2018-09-28T12:08:52.449Z,56.01
2018-09-28T12:09:52.422Z,55.53
2018-09-28T12:10:52.424Z,55.53
2018-09-28T12:11:52.371Z,55.05
2018-09-28T12:12:52.347Z,54.86
2018-09-28T12:13:52.318Z,55.63
2018-09-28T12:14:52.294Z,55.63
2018-09-28T12:15:52.270Z,55.98
2018-09-28T12:16:52.242Z,56.30
2018-09-28T12:17:52.217Z,55.69
2018-09-28T12:18:52.296Z,56.01
2018-09-28T12:19:52.163Z,55.05
2018-09-28T12:20:52.136Z,54.38
2018-09-28T12:21:52.778Z,53.23
2018-09-28T12:22:52.087Z,51.32
2018-09-28T12:23:52.059Z,51.10
2018-09-28T12:24:52.157Z,52.83
2018-09-28T12:25:52.006Z,52.44
2018-09-28T12:26:51.980Z,52.06
2018-09-28T12:27:52.059Z,50.70
2018-09-28T12:28:51.929Z,52.03
2018-09-28T12:29:51.903Z,52.80
2018-09-28T12:30:51.894Z,53.56
2018-09-28T12:31:51.852Z,54.33
2018-09-28T12:32:51.824Z,55.29
2018-09-28T12:33:51.800Z,54.90
2018-09-28T12:34:51.771Z,54.07
2018-09-28T12:35:51.746Z,54.83
2018-09-28T12:36:51.774Z,56.34
2018-09-28T12:37:51.691Z,56.84
2018-09-28T12:38:51.670Z,57.58
2018-09-28T12:39:51.651Z,58.34
2018-09-28T12:40:51.613Z,58.25
2018-09-28T12:41:51.588Z,57.68
2018-09-28T12:42:51.626Z,57.68
2018-09-28T12:43:51.533Z,59.40
2018-09-28T12:44:51.590Z,60.45
2018-09-28T12:45:51.479Z,61.12
2018-09-28T12:46:51.452Z,61.88
2018-09-28T12:47:51.429Z,62.55
2018-09-28T12:48:51.426Z,62.74
2018-09-28T12:49:51.370Z,62.30
2018-09-28T12:50:51.346Z,62.30
2018-09-28T12:51:51.319Z,62.20
2018-09-28T12:52:51.291Z,61.44
2018-09-28T12:53:51.263Z,61.34
2018-09-28T12:54:51.260Z,63.99
2018-09-28T12:55:51.213Z,64.66
2018-09-28T12:56:51.255Z,64.47
2018-09-28T12:57:51.156Z,64.95
2018-09-28T12:58:51.785Z,66.09
2018-09-28T12:59:51.104Z,66.38